カーブル の空港の天気 - METARとTAF

カーブル国際空港 ( OAKB / KBL ) - アフガニスタン カーブル
飛行場実況気象(Metar)
観測時間10/19 22:20 AFT (10/19 17:50 UTC)
風向・風速北 2m/s
視程10km以上
天気現象
なし
気温12℃
湿度38%
気圧1024hPa
METAROAKB 191750Z 36004KT CAVOK 12/M02 Q1024 NOSIG RMK A3024 BLU BLU
過去の天気等 Google飛行場航空写真 Wunderground天気予報

過去48時間のMETAR

飛行場予報(TAF)
発表時間: 10/19 21:35 AFT (10/19 17:05 UTC)
予報対象時間: 19日22時 AFT ~ 20日22時 AFT
風向・風速不定 1m/s
視程10km以上
なし
20日12時 AFT ~ 20日14時 AFT に徐々に
風向・風速東北東 6m/s
全天の4割程度の雲 雲底高度 2440m
20日19時 AFT ~ 20日21時 AFT に徐々に
風向・風速不定 1m/s
視程10km以上
なし
TAF OAKB 191705Z 1918/2018 VRB02KT CAVOK
BECMG 2008/2010 06012KT SCT080
BECMG 2015/2017 VRB02KT CAVOK